Allegiant A320 at Bangor on Mar 20th 2023, lined up with runway edge line for departure

Last Update: March 22, 2023 / 14:21:16 GMT/Zulu time

Bookmark this article
Incident Facts

Date of incident
Mar 20, 2023

Classification
Incident

Flight number
G4-1200

Aircraft Registration
N223NV

Aircraft Type
Airbus A320

ICAO Type Designator
A320

Airport ICAO Code
KBGR

An Allegiant Air Airbus A320-200, registration N223NV performing flight G4-1200 from Bangor,ME to Orlando Sanford,FL (USA), had taxied onto Bangor's runway 33 via taxiway A and was departing from Bangor's runway 33, however, collided with a number of right hand runway edge lights before the aircraft moved onto the runway center line. The aircraft departed, climbed to FL340 and landed in Orlando without further incident about 3 hours after departure.

The FAA reported: "AIRCRAFT STRUCK RUNWAY EDGE LIGHTS ON DEPARTURE, BANGOR, ME." and reported the damage as "UNKNOWN".

The aircraft remained on the ground in Orlando for 35 hours before returning to service.



Metars:
KBGR 210153Z 00000KT 10SM BKN075 02/M06 A3015 RMK AO2 SLP210 T00171056=
KBGR 210053Z 00000KT 10SM BKN080 02/M06 A3013 RMK AO2 SLP206 T00171061=
KBGR 202353Z 00000KT 10SM BKN080 02/M05 A3010 RMK AO2 SLP196 T00221050 10067 20022 53021=
KBGR 202253Z 22004KT 10SM BKN075 05/M07 A3007 RMK AO2 SLP186 T00501072=
KBGR 202153Z 22006KT 10SM FEW060 06/M07 A3005 RMK AO2 SLP179 T00561072=
KBGR 202053Z 26007G19KT 10SM FEW050 06/M08 A3004 RMK AO2 SLP175 T00611078 55004=
Aircraft Registration Data
Registration mark
N223NV
Country of Registration
United States
Date of Registration
Elhlkq ihdgAhApqe Subscribe to unlock
TCDS Ident. No.
Manufacturer
AIRBUS
Aircraft Model / Type
A320-214
Number of Seats
ICAO Aircraft Type
A320
Serial Number
Aircraft Address / Mode S Code (HEX)
Engine Count
Engine Type
Main Owner
DbefqgimkcijejpphfgkAqkjfghllAeinkmAb gdAqkfi qek pjelnqAbdcjc fjqblhidfq kcgffAejd Ahm Subscribe to unlock
Incident Facts

Date of incident
Mar 20, 2023

Classification
Incident

Flight number
G4-1200

Aircraft Registration
N223NV

Aircraft Type
Airbus A320

ICAO Type Designator
A320

Airport ICAO Code
KBGR

This article is published under license from Avherald.com. © of text by Avherald.com.
Article source

You can read 2 more free articles without a subscription.

Subscribe now and continue reading without any limits!

Are you a subscriber? Login
Subscribe

Read unlimited articles and receive our daily update briefing. Gain better insights into what is happening in commercial aviation safety.

Send tip

Support AeroInside by sending a small tip amount.

Related articles

Newest articles

Subscribe today

Are you researching aviation incidents? Get access to AeroInside Insights, unlimited read access and receive the daily newsletter.

Pick your plan and subscribe

Partner

Blockaviation logo

A new way to document and demonstrate airworthiness compliance and aircraft value. Find out more.

ELITE Logo

ELITE Simulation Solutions is a leading global provider of Flight Simulation Training Devices, IFR training software as well as flight controls and related services. Find out more.

Blue Altitude Logo

Your regulation partner, specialists in aviation safety and compliance; providing training, auditing, and consultancy services. Find out more.

AeroInside Blog
Popular aircraft
Airbus A320
Boeing 737-800
Boeing 737-800 MAX
Popular airlines
American Airlines
United
Delta
Air Canada
Lufthansa
British Airways